Time;durP1;ratioP1;P1;durP2;ratioP2;P2;SDS_P1;SDS_P2;PMS_P1;PMS_P2;Temp;Humidity;BMP_temperature;BMP_pressure;BME280_temperature;BME280_humidity;BME280_pressure;Samples;Min_cycle;Max_cycle;Signal;HPM_P1;HPM_P2
2023/03/20 00:01:58;;;;;;;17.20;5.20;;;9.70;99.90;;;;;;5112959;28;20031;-38
2023/03/20 00:04:24;;;;;;;13.93;4.35;;;9.70;99.90;;;;;;5110312;28;20028;-35
2023/03/20 00:06:50;;;;;;;8.38;4.18;;;9.70;99.90;;;;;;5110160;28;20094;-39
2023/03/20 00:09:16;;;;;;;6.25;3.70;;;9.60;99.90;;;;;;5113722;28;20093;-34
2023/03/20 00:11:52;;;;;;;9.52;4.03;;;9.70;99.90;;;;;;5099700;28;20024;-31
2023/03/20 00:14:21;;;;;;;11.73;4.10;;;9.70;99.90;;;;;;5102901;28;20039;-35
2023/03/20 00:16:48;;;;;;;8.32;3.35;;;9.70;99.90;;;;;;5113923;27;20036;-33
2023/03/20 00:19:16;;;;;;;7.80;4.10;;;9.70;99.90;;;;;;5114684;27;20101;-34
2023/03/20 00:21:46;;;;;;;10.38;3.67;;;9.70;99.90;;;;;;5100155;28;20095;-40
2023/03/20 00:24:12;;;;;;;9.65;4.68;;;9.60;99.90;;;;;;5095756;28;20018;-34
2023/03/20 00:26:38;;;;;;;8.15;3.70;;;9.60;99.90;;;;;;5100319;28;20023;-36
2023/03/20 00:29:06;;;;;;;9.07;4.47;;;9.60;99.90;;;;;;5098978;28;20050;-34
2023/03/20 00:31:37;;;;;;;10.07;4.70;;;9.60;99.90;;;;;;5096469;28;20094;-41
2023/03/20 00:34:06;;;;;;;16.52;5.43;;;9.60;99.90;;;;;;5100461;28;20488;-37
2023/03/20 00:36:31;;;;;;;9.10;5.22;;;9.60;99.90;;;;;;5096786;28;20637;-41
2023/03/20 00:38:57;;;;;;;12.18;5.90;;;9.60;99.90;;;;;;5106595;28;20114;-38
2023/03/20 00:41:37;;;;;;;12.27;5.30;;;9.60;99.90;;;;;;5097603;28;20028;-38
2023/03/20 00:44:26;;;;;;;11.30;4.75;;;9.50;99.90;;;;;;5094000;28;20036;-39
2023/03/20 00:47:20;;;;;;;11.18;5.65;;;9.50;99.90;;;;;;5102097;28;20384;-39
2023/03/20 00:49:48;;;;;;;7.03;4.22;;;9.50;99.90;;;;;;5113066;28;20081;-39
2023/03/20 00:52:16;;;;;;;9.13;4.15;;;9.50;99.90;;;;;;5092766;28;20031;-40
2023/03/20 00:54:42;;;;;;;11.18;4.03;;;9.50;99.90;;;;;;5096906;28;20020;-38
2023/03/20 00:57:21;;;;;;;10.30;3.80;;;9.50;99.90;;;;;;5099216;28;20039;-35
2023/03/20 01:00:03;;;;;;;6.15;2.70;;;9.50;99.90;;;;;;5098970;28;20035;-39
2023/03/20 01:02:29;;;;;;;11.23;3.42;;;9.50;99.90;;;;;;5094530;28;20027;-38
2023/03/20 01:04:56;;;;;;;8.30;3.03;;;9.40;99.90;;;;;;5097986;28;20487;-35
2023/03/20 01:07:22;;;;;;;8.13;3.95;;;9.40;99.90;;;;;;5096833;28;20020;-35
2023/03/20 01:09:48;;;;;;;8.98;4.10;;;9.40;99.90;;;;;;5112606;28;20031;-39
2023/03/20 01:12:15;;;;;;;5.40;3.63;;;9.30;99.90;;;;;;5105741;28;20514;-34
2023/03/20 01:14:42;;;;;;;10.05;3.58;;;9.30;99.90;;;;;;5097062;28;20024;-37
2023/03/20 01:17:19;;;;;;;12.68;3.78;;;9.30;99.90;;;;;;5096699;28;20526;-35
2023/03/20 01:19:45;;;;;;;10.57;4.40;;;9.30;99.90;;;;;;5099879;28;20028;-40
2023/03/20 01:22:12;;;;;;;7.95;3.97;;;9.30;99.90;;;;;;5098838;28;20053;-35
2023/03/20 01:24:38;;;;;;;10.60;3.70;;;9.30;99.90;;;;;;5102297;28;20016;-38
2023/03/20 01:27:11;;;;;;;8.50;3.42;;;9.30;99.90;;;;;;5108378;28;20078;-33
2023/03/20 01:29:37;;;;;;;9.80;4.13;;;9.20;99.90;;;;;;5104955;28;20491;-34
2023/03/20 01:32:08;;;;;;;8.45;3.30;;;9.20;99.90;;;;;;5115916;28;20028;-34
2023/03/20 01:34:34;;;;;;;8.15;3.60;;;9.20;99.90;;;;;;5102824;28;20438;-36
2023/03/20 01:36:59;;;;;;;7.75;4.30;;;9.10;99.90;;;;;;5096172;28;20032;-39
2023/03/20 01:39:34;;;;;;;8.30;4.70;;;9.10;99.90;;;;;;5100986;28;20404;-32
2023/03/20 01:42:02;;;;;;;10.30;3.38;;;9.10;99.90;;;;;;5108010;28;20023;-33
2023/03/20 01:44:30;;;;;;;6.77;4.60;;;9.00;99.90;;;;;;5115342;28;20042;-43
2023/03/20 01:46:56;;;;;;;;;;;9.00;99.90;;;;;;5104995;28;20785;-40
2023/03/20 01:49:21;;;;;;;7.38;3.75;;;9.00;99.90;;;;;;5096176;28;19908;-38
2023/03/20 01:51:48;;;;;;;12.25;3.55;;;8.90;99.90;;;;;;5095405;28;20036;-39
2023/03/20 01:54:28;;;;;;;7.55;4.35;;;8.80;99.90;;;;;;5096134;28;20480;-38
2023/03/20 01:57:23;;;;;;;6.10;3.50;;;8.90;99.90;;;;;;5104537;28;20088;-34
2023/03/20 01:59:58;;;;;;;5.53;3.30;;;8.80;99.90;;;;;;5094425;28;20097;-39
2023/03/20 02:02:28;;;;;;;10.50;4.47;;;8.80;99.90;;;;;;5095112;28;20028;-37
2023/03/20 02:04:58;;;;;;;8.13;4.13;;;8.80;99.90;;;;;;5096526;28;20028;-39
2023/03/20 02:07:24;;;;;;;12.38;4.20;;;8.80;99.90;;;;;;5095738;28;20020;-31
2023/03/20 02:09:50;;;;;;;13.73;3.95;;;8.80;99.90;;;;;;5097806;28;20101;-35
2023/03/20 02:12:18;;;;;;;9.75;4.95;;;8.90;99.90;;;;;;5107475;28;20080;-36
2023/03/20 02:14:46;;;;;;;9.52;4.97;;;8.90;99.90;;;;;;5100869;28;20038;-36
2023/03/20 02:17:12;;;;;;;7.80;4.30;;;8.90;99.90;;;;;;5095735;28;20055;-34
2023/03/20 02:20:12;;;;;;;14.57;5.07;;;8.80;99.90;;;;;;5105824;28;20118;-38
2023/03/20 02:22:53;;;;;;;11.85;4.85;;;8.70;99.90;;;;;;5115711;28;20039;-35
2023/03/20 02:25:31;;;;;;;10.43;4.97;;;8.70;99.90;;;;;;5097033;28;20513;-37
2023/03/20 02:28:10;;;;;;;;;;;8.70;99.90;;;;;;5114168;28;20539;-35
2023/03/20 02:30:44;;;;;;;10.15;5.07;;;8.60;99.90;;;;;;5115702;28;20048;-37
2023/03/20 02:33:34;;;;;;;13.43;5.13;;;8.60;99.90;;;;;;5105889;28;20084;-36
2023/03/20 02:36:42;;;;;;;13.50;6.13;;;8.60;99.90;;;;;;5094996;28;20036;-35
2023/03/20 02:39:30;;;;;;;23.95;6.32;;;8.60;99.90;;;;;;5094912;28;20089;-39
2023/03/20 02:42:10;;;;;;;;;;;8.60;99.90;;;;;;5101037;28;20472;-34
2023/03/20 02:45:10;;;;;;;15.93;5.80;;;8.60;99.90;;;;;;5115118;28;20368;-32
2023/03/20 02:47:39;;;;;;;15.27;6.57;;;8.60;99.90;;;;;;5113676;28;20035;-34
2023/03/20 02:50:16;;;;;;;17.50;6.70;;;8.60;99.90;;;;;;5115463;28;20024;-33
2023/03/20 02:52:54;;;;;;;;;;;8.50;99.90;;;;;;5115696;28;20084;-33
2023/03/20 02:55:38;;;;;;;20.35;6.25;;;8.40;99.90;;;;;;5104135;28;20375;-39
2023/03/20 02:58:32;;;;;;;25.13;6.45;;;8.40;99.90;;;;;;5106874;28;20403;-37
2023/03/20 03:01:12;;;;;;;16.27;6.97;;;8.40;99.90;;;;;;5110669;28;20051;-40
2023/03/20 03:04:03;;;;;;;19.75;7.00;;;8.30;99.90;;;;;;5099213;28;20023;-39
2023/03/20 03:06:31;;;;;;;15.77;6.82;;;8.20;99.90;;;;;;5115021;28;20023;-40
2023/03/20 03:09:16;;;;;;;14.60;6.78;;;8.20;99.90;;;;;;5110905;28;20027;-39
2023/03/20 03:11:47;;;;;;;21.90;8.13;;;8.30;99.90;;;;;;5113144;28;20479;-41
2023/03/20 03:14:41;;;;;;;19.70;7.80;;;8.30;99.90;;;;;;5094034;28;20046;-40
2023/03/20 03:17:09;;;;;;;23.13;7.07;;;8.30;99.90;;;;;;5100420;28;20130;-40
2023/03/20 03:19:36;;;;;;;18.80;7.82;;;8.30;99.90;;;;;;5094004;28;20067;-39
2023/03/20 03:22:03;;;;;;;23.73;7.90;;;8.30;99.90;;;;;;5094282;28;20488;-38
2023/03/20 03:24:35;;;;;;;22.88;8.13;;;8.30;99.90;;;;;;5094270;28;20417;-40
2023/03/20 03:27:06;;;;;;;19.95;8.68;;;8.30;99.90;;;;;;5097085;28;20049;-40
2023/03/20 03:29:35;;;;;;;15.07;7.50;;;8.30;99.90;;;;;;5113534;27;20023;-39
2023/03/20 03:32:04;;;;;;;20.42;7.95;;;8.20;99.90;;;;;;5102766;28;20085;-38
2023/03/20 03:34:32;;;;;;;22.92;7.85;;;8.10;99.90;;;;;;5100360;28;20119;-41
2023/03/20 03:37:14;;;;;;;23.63;8.67;;;8.20;99.90;;;;;;5096053;28;20391;-39
2023/03/20 03:39:57;;;;;;;18.15;7.60;;;8.20;99.90;;;;;;5114500;28;20036;-40
2023/03/20 03:42:37;;;;;;;23.92;8.13;;;8.20;99.90;;;;;;5106150;28;20020;-39
2023/03/20 03:45:16;;;;;;;24.52;8.38;;;8.20;99.90;;;;;;5093671;28;20043;-45
2023/03/20 03:47:56;;;;;;;22.67;7.60;;;8.20;99.90;;;;;;5102115;28;20110;-39
2023/03/20 03:50:33;;;;;;;17.48;8.05;;;8.20;99.90;;;;;;5114315;28;20058;-40
2023/03/20 03:53:05;;;;;;;14.35;5.57;;;8.20;99.90;;;;;;5112749;28;20182;-39
2023/03/20 03:55:38;;;;;;;18.42;7.93;;;8.10;99.90;;;;;;5113007;28;20024;-39
2023/03/20 03:58:14;;;;;;;22.52;8.45;;;8.10;99.90;;;;;;5100395;28;20084;-40
2023/03/20 04:00:42;;;;;;;21.17;7.72;;;8.10;99.90;;;;;;5108277;28;20036;-40
2023/03/20 04:03:09;;;;;;;22.42;8.45;;;8.10;99.90;;;;;;5112529;28;20020;-39
2023/03/20 04:05:40;;;;;;;18.73;7.60;;;8.00;99.90;;;;;;5114084;28;20145;-39
2023/03/20 04:08:06;;;;;;;20.98;7.75;;;8.00;99.90;;;;;;5100072;28;20027;-35
2023/03/20 04:10:32;;;;;;;18.33;6.72;;;8.00;99.90;;;;;;5113647;28;20062;-36
2023/03/20 04:12:57;;;;;;;19.17;8.23;;;8.00;99.90;;;;;;5112103;28;20419;-31
2023/03/20 04:15:26;;;;;;;22.27;7.85;;;8.00;99.90;;;;;;5113655;28;20551;-38
2023/03/20 04:17:52;;;;;;;23.98;8.57;;;8.00;99.90;;;;;;5112154;28;20476;-36
2023/03/20 04:20:18;;;;;;;23.50;7.15;;;8.00;99.90;;;;;;5113521;28;20069;-37
2023/03/20 04:22:43;;;;;;;16.55;6.78;;;8.00;99.90;;;;;;5094659;28;20503;-33
2023/03/20 04:25:19;;;;;;;16.73;7.78;;;7.90;99.90;;;;;;5093377;28;20020;-35
2023/03/20 04:27:44;;;;;;;18.15;7.78;;;7.90;99.90;;;;;;5106132;28;20077;-41
2023/03/20 04:30:11;;;;;;;18.02;7.60;;;7.90;99.90;;;;;;5112852;28;20027;-35
2023/03/20 04:32:37;;;;;;;17.98;7.57;;;7.90;99.90;;;;;;5113424;28;20039;-39
2023/03/20 04:35:03;;;;;;;23.58;7.72;;;7.90;99.90;;;;;;5112747;28;20027;-33
2023/03/20 04:37:29;;;;;;;23.77;7.07;;;7.90;99.90;;;;;;5099830;28;20032;-42
2023/03/20 04:39:54;;;;;;;14.02;6.88;;;7.90;99.90;;;;;;5093093;28;20096;-35
2023/03/20 04:42:20;;;;;;;18.35;7.35;;;7.90;99.90;;;;;;5094096;28;20024;-33
2023/03/20 04:44:46;;;;;;;19.73;8.18;;;8.00;99.90;;;;;;5106353;28;20127;-32
2023/03/20 04:47:11;;;;;;;19.65;7.80;;;7.90;99.90;;;;;;5113266;28;20031;-33
2023/03/20 04:49:37;;;;;;;12.50;6.75;;;7.90;99.90;;;;;;5113172;28;20028;-36
2023/03/20 04:52:03;;;;;;;17.00;8.05;;;8.00;99.90;;;;;;5108925;28;20513;-39
2023/03/20 04:54:29;;;;;;;18.95;8.02;;;8.00;99.90;;;;;;5113231;28;20092;-37
2023/03/20 04:56:54;;;;;;;14.13;7.43;;;8.00;99.90;;;;;;5103971;28;20032;-37
2023/03/20 04:59:20;;;;;;;18.70;7.38;;;8.00;99.90;;;;;;5100728;28;20115;-35
2023/03/20 05:01:46;;;;;;;16.67;8.38;;;8.00;99.90;;;;;;5113137;28;20032;-36
2023/03/20 05:04:12;;;;;;;16.27;7.53;;;8.00;99.90;;;;;;5113103;28;20019;-35
2023/03/20 05:06:37;;;;;;;20.23;8.45;;;8.00;99.90;;;;;;5107780;28;20059;-37
2023/03/20 05:09:03;;;;;;;17.92;8.88;;;8.00;99.90;;;;;;5097810;28;20027;-37
2023/03/20 05:11:29;;;;;;;21.17;8.38;;;8.00;99.90;;;;;;5112996;28;20114;-36
2023/03/20 05:13:55;;;;;;;16.10;8.75;;;8.00;99.90;;;;;;5110246;28;20020;-35
2023/03/20 05:16:20;;;;;;;14.50;7.85;;;8.00;99.90;;;;;;5100619;28;20015;-36
2023/03/20 05:18:46;;;;;;;17.73;8.48;;;8.00;99.90;;;;;;5112930;28;20039;-33
2023/03/20 05:21:12;;;;;;;25.60;8.73;;;8.00;99.90;;;;;;5112632;28;20507;-34
2023/03/20 05:23:38;;;;;;;16.13;7.97;;;8.00;99.90;;;;;;5111642;28;20043;-39
2023/03/20 05:26:04;;;;;;;19.67;8.70;;;8.10;99.90;;;;;;5112073;28;20053;-37
2023/03/20 05:28:30;;;;;;;17.95;9.00;;;8.00;99.90;;;;;;5093548;28;20447;-36
2023/03/20 05:30:56;;;;;;;21.23;9.23;;;8.10;99.90;;;;;;5109241;28;20601;-37
2023/03/20 05:33:22;;;;;;;18.25;7.72;;;8.00;99.90;;;;;;5096692;28;20028;-35
2023/03/20 05:35:47;;;;;;;18.08;8.32;;;7.90;99.90;;;;;;5092716;28;20020;-39
2023/03/20 05:38:13;;;;;;;23.98;8.35;;;8.00;99.90;;;;;;5091891;28;20100;-33
2023/03/20 05:40:40;;;;;;;18.27;8.07;;;7.90;99.90;;;;;;5107670;28;20111;-33
2023/03/20 05:43:06;;;;;;;21.10;7.80;;;8.00;99.90;;;;;;5110180;28;20058;-34
2023/03/20 05:45:32;;;;;;;15.20;8.48;;;8.00;99.90;;;;;;5111187;28;20067;-39
2023/03/20 05:47:57;;;;;;;24.70;8.18;;;8.00;99.90;;;;;;5090415;28;20024;-33
2023/03/20 05:50:23;;;;;;;15.73;8.00;;;8.00;99.90;;;;;;5094676;28;20077;-32
2023/03/20 05:52:49;;;;;;;29.02;8.52;;;8.10;99.90;;;;;;5099714;28;20069;-40
2023/03/20 05:55:15;;;;;;;20.38;7.60;;;8.00;99.90;;;;;;5095892;28;20028;-40
2023/03/20 05:57:41;;;;;;;21.00;8.27;;;8.00;99.90;;;;;;5095662;28;20484;-36
2023/03/20 06:00:09;;;;;;;23.05;9.70;;;7.90;99.90;;;;;;5104077;28;20035;-33
2023/03/20 06:02:38;;;;;;;16.63;8.40;;;7.90;99.90;;;;;;5114746;28;20369;-34
2023/03/20 06:05:03;;;;;;;17.17;8.55;;;7.90;99.90;;;;;;5116106;28;20015;-38
2023/03/20 06:07:29;;;;;;;18.85;8.02;;;7.90;99.90;;;;;;5116133;28;20027;-35
2023/03/20 06:09:55;;;;;;;15.55;8.10;;;7.90;99.90;;;;;;5115227;28;20028;-32
2023/03/20 06:12:21;;;;;;;16.08;7.30;;;7.90;99.90;;;;;;5115933;28;20366;-35
2023/03/20 06:14:47;;;;;;;20.65;9.02;;;7.90;99.90;;;;;;5112081;28;20117;-35
2023/03/20 06:17:12;;;;;;;18.65;7.97;;;8.00;99.90;;;;;;5113364;28;20031;-40
2023/03/20 06:19:39;;;;;;;19.70;8.98;;;8.00;99.90;;;;;;5115801;28;20430;-38
2023/03/20 06:22:04;;;;;;;18.35;8.15;;;7.90;99.90;;;;;;5115889;28;20486;-40
2023/03/20 06:24:30;;;;;;;17.73;7.82;;;8.00;99.90;;;;;;5101392;28;20017;-42
2023/03/20 06:26:56;;;;;;;15.80;8.52;;;8.00;99.90;;;;;;5101671;28;20106;-40
2023/03/20 06:29:22;;;;;;;18.40;8.48;;;8.00;99.90;;;;;;5115939;28;20451;-41
2023/03/20 06:31:47;;;;;;;16.88;7.50;;;8.00;99.90;;;;;;5104832;28;20024;-40
2023/03/20 06:34:13;;;;;;;18.90;8.18;;;8.00;99.90;;;;;;5113298;28;20117;-33
2023/03/20 06:36:40;;;;;;;16.20;7.40;;;8.00;99.90;;;;;;5115446;28;20015;-35
2023/03/20 06:39:06;;;;;;;19.63;7.90;;;8.00;99.90;;;;;;5100416;28;20028;-36
2023/03/20 06:41:32;;;;;;;19.23;8.38;;;8.00;99.90;;;;;;5095332;28;20038;-36
2023/03/20 06:43:57;;;;;;;16.60;7.15;;;8.00;99.90;;;;;;5094084;28;20024;-37
2023/03/20 06:46:23;;;;;;;21.25;7.65;;;8.00;99.90;;;;;;5096851;28;20016;-42
2023/03/20 06:48:49;;;;;;;20.67;8.77;;;8.10;99.90;;;;;;5114736;28;20390;-36
2023/03/20 06:51:15;;;;;;;21.27;7.78;;;8.10;99.90;;;;;;5102403;28;20541;-35
2023/03/20 06:53:42;;;;;;;21.42;8.43;;;8.10;99.90;;;;;;5094903;28;20017;-40
2023/03/20 06:56:09;;;;;;;18.75;6.80;;;8.10;99.90;;;;;;5094233;28;20024;-34
2023/03/20 06:58:35;;;;;;;19.40;7.68;;;8.10;99.90;;;;;;5115003;28;20049;-49
2023/03/20 07:01:01;;;;;;;18.20;7.25;;;8.10;99.90;;;;;;5111613;27;20032;-39
2023/03/20 07:03:27;;;;;;;18.13;7.63;;;8.20;99.90;;;;;;5114953;28;20437;-39
2023/03/20 07:05:53;;;;;;;14.63;7.00;;;8.20;99.90;;;;;;5113367;28;20012;-43
2023/03/20 07:08:19;;;;;;;15.13;6.88;;;8.20;99.90;;;;;;5113769;28;20024;-39
2023/03/20 07:10:45;;;;;;;16.77;7.72;;;8.20;99.90;;;;;;5114892;28;20076;-39
2023/03/20 07:13:11;;;;;;;15.70;6.35;;;8.30;99.90;;;;;;5115104;28;20027;-41
2023/03/20 07:15:37;;;;;;;21.35;8.25;;;8.40;99.90;;;;;;5113389;28;20514;-40
2023/03/20 07:18:02;;;;;;;25.10;7.25;;;8.30;99.90;;;;;;5096350;28;20357;-40
2023/03/20 07:20:28;;;;;;;21.58;7.97;;;8.30;99.90;;;;;;5094002;28;20491;-40
2023/03/20 07:22:54;;;;;;;15.63;6.80;;;8.30;99.90;;;;;;5096025;28;20105;-40
2023/03/20 07:25:20;;;;;;;24.52;6.53;;;8.30;99.90;;;;;;5110996;28;20039;-40
2023/03/20 07:27:49;;;;;;;18.42;6.32;;;8.40;99.90;;;;;;5094419;28;20020;-39
2023/03/20 07:30:16;;;;;;;13.88;6.05;;;8.40;99.90;;;;;;5106880;28;20034;-40
2023/03/20 07:32:43;;;;;;;13.90;5.87;;;8.40;99.90;;;;;;5110044;28;20016;-38
2023/03/20 07:35:08;;;;;;;24.42;7.25;;;8.40;99.90;;;;;;5096351;28;20030;-39
2023/03/20 07:37:34;;;;;;;18.38;7.30;;;8.30;99.90;;;;;;5105258;28;20484;-41
2023/03/20 07:40:00;;;;;;;10.45;6.28;;;8.40;99.90;;;;;;5110099;28;20541;-32
2023/03/20 07:42:25;;;;;;;15.88;6.05;;;8.40;99.90;;;;;;5100611;28;20027;-34
2023/03/20 07:44:51;;;;;;;20.23;6.00;;;8.40;99.90;;;;;;5093527;28;20036;-35
2023/03/20 07:47:17;;;;;;;16.88;5.10;;;8.40;99.90;;;;;;5094350;28;20016;-39
2023/03/20 07:49:42;;;;;;;17.13;5.90;;;8.50;99.90;;;;;;5097630;28;20473;-47
2023/03/20 07:52:08;;;;;;;18.58;5.50;;;8.50;99.90;;;;;;5106087;28;20609;-40
2023/03/20 07:54:34;;;;;;;12.15;5.68;;;8.50;99.90;;;;;;5103928;28;20076;-37
2023/03/20 07:57:00;;;;;;;12.20;4.72;;;8.60;99.90;;;;;;5112815;28;20037;-39
2023/03/20 07:59:26;;;;;;;13.98;4.93;;;8.60;99.90;;;;;;5091937;28;20594;-40
2023/03/20 08:01:51;;;;;;;12.10;5.43;;;8.70;99.90;;;;;;5103388;27;20072;-45
2023/03/20 08:04:20;;;;;;;12.20;4.85;;;8.70;99.90;;;;;;5103987;27;20153;-41
2023/03/20 08:06:45;;;;;;;16.58;5.60;;;8.80;99.90;;;;;;5093603;28;20115;-40
2023/03/20 08:09:11;;;;;;;15.35;5.70;;;8.90;99.90;;;;;;5094314;28;20069;-39
2023/03/20 08:11:36;;;;;;;17.30;6.18;;;8.90;99.90;;;;;;5095857;28;20020;-40
2023/03/20 08:14:02;;;;;;;11.18;5.72;;;9.10;99.90;;;;;;5103782;28;20031;-40
2023/03/20 08:16:28;;;;;;;15.95;5.10;;;9.10;99.90;;;;;;5103311;28;20396;-45
2023/03/20 08:18:59;;;;;;;14.27;4.65;;;9.10;99.90;;;;;;5096717;28;20020;-42
2023/03/20 08:21:26;;;;;;;17.65;5.97;;;9.10;99.90;;;;;;5092552;28;20038;-40
2023/03/20 08:23:52;;;;;;;12.77;4.53;;;9.10;99.90;;;;;;5097687;28;20026;-40
2023/03/20 08:26:18;;;;;;;11.02;4.30;;;9.10;99.90;;;;;;5103365;28;20103;-40
2023/03/20 08:28:43;;;;;;;9.23;5.07;;;9.10;99.90;;;;;;5098713;28;20055;-40
2023/03/20 08:31:09;;;;;;;9.73;4.82;;;9.10;99.90;;;;;;5102652;28;20119;-41
2023/03/20 08:33:35;;;;;;;15.15;5.88;;;9.20;99.90;;;;;;5103536;28;20023;-38
2023/03/20 08:36:00;;;;;;;15.32;6.15;;;9.20;99.90;;;;;;5096080;28;20061;-34
2023/03/20 08:38:26;;;;;;;13.00;5.07;;;9.10;99.90;;;;;;5107053;28;20028;-37
2023/03/20 08:40:53;;;;;;;15.73;4.93;;;9.10;99.90;;;;;;5093330;28;20358;-36
2023/03/20 08:43:19;;;;;;;18.23;6.23;;;9.10;99.90;;;;;;5093185;28;20427;-36
2023/03/20 08:45:45;;;;;;;14.75;5.00;;;9.10;99.90;;;;;;5100183;28;20368;-35
2023/03/20 08:48:10;;;;;;;18.48;6.18;;;9.10;99.90;;;;;;5101771;28;20468;-34
2023/03/20 08:50:37;;;;;;;15.43;5.13;;;9.10;99.90;;;;;;5093211;28;20463;-36
2023/03/20 08:53:03;;;;;;;18.75;6.57;;;9.00;99.90;;;;;;5097449;28;20030;-36
2023/03/20 08:55:29;;;;;;;13.07;4.72;;;9.00;99.90;;;;;;5100821;28;20062;-37
2023/03/20 08:57:56;;;;;;;21.20;5.68;;;9.10;99.90;;;;;;5110353;28;20487;-41
2023/03/20 09:00:22;;;;;;;16.73;5.47;;;9.10;99.90;;;;;;5108055;28;20516;-35
2023/03/20 09:02:49;;;;;;;15.85;6.47;;;9.00;99.90;;;;;;5112811;28;20506;-30
2023/03/20 09:05:15;;;;;;;13.10;4.95;;;9.00;99.90;;;;;;5113274;28;20499;-35
2023/03/20 09:07:41;;;;;;;12.50;5.10;;;9.00;99.90;;;;;;5103894;28;20535;-34
2023/03/20 09:10:08;;;;;;;15.15;5.20;;;8.90;99.90;;;;;;5097183;28;20099;-39
2023/03/20 09:12:34;;;;;;;13.88;5.40;;;9.00;99.90;;;;;;5091959;28;20081;-34
2023/03/20 09:15:01;;;;;;;18.33;6.15;;;9.00;99.90;;;;;;5099009;28;20032;-33
2023/03/20 09:17:27;;;;;;;19.10;5.38;;;9.00;99.90;;;;;;5094029;28;20043;-34
2023/03/20 09:19:52;;;;;;;12.07;5.97;;;9.00;99.90;;;;;;5104524;28;20028;-34
2023/03/20 09:22:19;;;;;;;15.60;5.93;;;9.00;99.90;;;;;;5097422;28;20107;-35
2023/03/20 09:24:45;;;;;;;11.75;4.90;;;9.10;99.90;;;;;;5100492;28;20092;-37
2023/03/20 09:27:14;;;;;;;10.88;5.05;;;9.10;99.90;;;;;;5104654;28;20035;-34
2023/03/20 09:29:43;;;;;;;15.68;5.20;;;9.20;99.90;;;;;;5112203;28;20035;-38
2023/03/20 09:32:11;;;;;;;11.88;5.30;;;9.20;99.90;;;;;;5104755;28;22270;-37
2023/03/20 09:34:37;;;;;;;17.73;6.10;;;9.30;99.90;;;;;;5109741;28;20060;-37
2023/03/20 09:37:03;;;;;;;13.95;4.97;;;9.30;99.90;;;;;;5094913;28;20067;-33
2023/03/20 09:39:29;;;;;;;11.30;5.18;;;9.50;99.90;;;;;;5095106;28;20376;-46
2023/03/20 09:42:02;;;;;;;16.77;5.72;;;9.50;99.90;;;;;;5101761;28;20111;-38
2023/03/20 09:44:45;;;;;;;11.70;5.03;;;9.50;99.90;;;;;;5107839;28;20495;-38
2023/03/20 09:47:42;;;;;;;16.88;4.57;;;9.50;99.90;;;;;;5108729;27;20118;-39
2023/03/20 09:50:33;;;;;;;14.20;4.70;;;9.60;99.90;;;;;;5115328;28;20106;-41
2023/03/20 09:52:58;;;;;;;10.10;4.30;;;9.80;99.90;;;;;;5107532;28;20031;-41
2023/03/20 09:55:36;;;;;;;9.93;4.88;;;9.90;99.90;;;;;;5114643;28;20088;-41
2023/03/20 09:58:04;;;;;;;;;;;10.00;99.90;;;;;;5104742;28;20122;-41
2023/03/20 10:00:34;;;;;;;13.23;4.47;;;10.20;99.90;;;;;;5105639;28;19923;-40
2023/03/20 10:03:20;;;;;;;17.85;4.95;;;10.20;99.90;;;;;;5095190;28;20023;-41
2023/03/20 10:05:56;;;;;;;22.13;5.63;;;10.20;99.90;;;;;;5110079;28;20073;-41
2023/03/20 10:08:27;;;;;;;11.02;5.05;;;10.10;99.90;;;;;;5109723;28;20024;-41
2023/03/20 10:10:55;;;;;;;17.73;4.53;;;10.00;99.90;;;;;;5105545;28;20055;-46
2023/03/20 10:13:36;;;;;;;18.73;5.20;;;10.00;99.90;;;;;;5096142;28;20480;-37
2023/03/20 10:16:24;;;;;;;10.02;5.03;;;10.10;99.90;;;;;;5094881;28;20044;-32
2023/03/20 10:19:00;;;;;;;12.68;4.85;;;10.20;99.90;;;;;;5109941;28;20083;-39
2023/03/20 10:21:38;;;;;;;12.77;4.07;;;10.10;99.90;;;;;;5115779;28;20031;-36
2023/03/20 10:24:08;;;;;;;23.73;6.97;;;10.00;99.90;;;;;;5115811;28;20023;-35
2023/03/20 10:26:35;;;;;;;17.20;4.85;;;10.10;99.90;;;;;;5111063;28;20468;-35
2023/03/20 10:29:06;;;;;;;8.82;4.50;;;10.10;99.90;;;;;;5095593;28;20095;-35
2023/03/20 10:32:19;;;;;;;8.00;4.53;;;10.20;99.90;;;;;;5095547;28;20039;-35
2023/03/20 10:35:11;;;;;;;12.73;5.13;;;10.10;99.90;;;;;;5094679;28;20028;-47
2023/03/20 10:37:54;;;;;;;13.70;4.55;;;10.10;99.90;;;;;;5094974;28;20051;-40
2023/03/20 10:40:30;;;;;;;14.52;5.10;;;10.20;99.90;;;;;;5108799;28;20399;-40
2023/03/20 10:43:01;;;;;;;15.60;5.07;;;10.20;99.90;;;;;;5103971;28;20032;-40
2023/03/20 10:45:30;;;;;;;10.57;5.03;;;10.10;99.90;;;;;;5094784;28;20032;-41
2023/03/20 10:48:01;;;;;;;8.45;4.28;;;10.10;99.90;;;;;;5095028;28;20032;-40
2023/03/20 10:50:38;;;;;;;13.65;6.28;;;10.20;99.90;;;;;;5094921;28;20036;-43
2023/03/20 10:53:06;;;;;;;11.43;6.57;;;10.20;99.90;;;;;;5094908;28;20032;-40
2023/03/20 10:55:42;;;;;;;17.65;7.50;;;10.20;99.90;;;;;;5093399;28;20086;-42
2023/03/20 10:58:18;;;;;;;15.95;7.55;;;10.10;99.90;;;;;;5094792;28;20558;-41
2023/03/20 11:00:44;;;;;;;14.57;6.43;;;10.10;99.90;;;;;;5094661;28;20032;-41
2023/03/20 11:03:22;;;;;;;14.57;7.35;;;10.20;99.90;;;;;;5096530;28;20538;-41
2023/03/20 11:05:58;;;;;;;16.23;7.20;;;10.10;99.90;;;;;;5115081;27;20028;-42
2023/03/20 11:08:29;;;;;;;13.18;6.53;;;10.00;99.90;;;;;;5115003;28;20023;-40
2023/03/20 11:11:00;;;;;;;20.33;8.05;;;10.00;99.90;;;;;;5113680;28;20032;-42
2023/03/20 11:13:30;;;;;;;16.83;8.30;;;10.00;99.90;;;;;;5094744;28;20073;-41
2023/03/20 11:16:06;;;;;;;19.73;8.82;;;9.90;99.90;;;;;;5095007;28;20043;-39
2023/03/20 11:18:33;;;;;;;20.33;9.40;;;9.80;99.90;;;;;;5114742;28;20035;-40
2023/03/20 11:21:01;;;;;;;19.00;8.75;;;9.80;99.90;;;;;;5113227;28;20028;-40
2023/03/20 11:23:31;;;;;;;16.95;8.93;;;9.90;99.90;;;;;;5114725;28;20051;-44
2023/03/20 11:26:05;;;;;;;21.58;9.30;;;9.90;99.90;;;;;;5114488;28;20035;-34
2023/03/20 11:28:32;;;;;;;26.08;9.40;;;10.10;99.90;;;;;;5095184;28;20078;-37
2023/03/20 11:31:20;;;;;;;21.33;8.85;;;10.20;99.90;;;;;;5093189;28;20065;-37
2023/03/20 11:34:09;;;;;;;23.30;8.65;;;10.30;99.90;;;;;;5093539;28;20049;-37
2023/03/20 11:36:38;;;;;;;20.50;9.10;;;10.50;99.90;;;;;;5113075;28;20036;-34
2023/03/20 11:39:13;;;;;;;17.23;8.10;;;10.40;99.90;;;;;;5114196;28;20039;-35
2023/03/20 11:41:46;;;;;;;20.42;9.45;;;10.40;99.90;;;;;;5114605;28;20024;-31
2023/03/20 11:44:34;;;;;;;21.60;9.15;;;10.40;99.90;;;;;;5106136;28;20532;-37
2023/03/20 11:47:10;;;;;;;20.40;9.13;;;10.30;99.90;;;;;;5113087;28;20051;-35
2023/03/20 11:49:56;;;;;;;28.42;9.38;;;10.40;99.90;;;;;;5114063;28;20092;-37
2023/03/20 11:52:27;;;;;;;24.95;9.88;;;10.50;99.90;;;;;;5114154;28;20066;-38
2023/03/20 11:54:57;;;;;;;15.73;8.98;;;10.50;99.90;;;;;;5114052;28;20103;-38
2023/03/20 11:57:42;;;;;;;23.45;9.25;;;10.50;99.90;;;;;;5113376;28;20035;-42
2023/03/20 12:00:22;;;;;;;19.98;9.70;;;10.60;99.90;;;;;;5096233;28;20377;-34
2023/03/20 12:02:49;;;;;;;26.38;11.02;;;10.60;99.90;;;;;;5111123;27;20016;-37
2023/03/20 12:05:30;;;;;;;18.88;8.52;;;10.50;99.90;;;;;;5112550;28;20016;-32
2023/03/20 12:08:08;;;;;;;19.63;9.15;;;10.40;99.90;;;;;;5113885;28;20433;-35
2023/03/20 12:10:38;;;;;;;21.13;9.85;;;10.40;99.90;;;;;;5113890;28;20446;-34
2023/03/20 12:13:17;;;;;;;25.15;10.98;;;10.40;99.90;;;;;;5113812;28;20085;-39
2023/03/20 12:15:50;;;;;;;23.63;10.43;;;10.40;99.90;;;;;;5094893;28;20106;-37
2023/03/20 12:18:51;;;;;;;20.30;10.40;;;10.30;99.90;;;;;;5093340;28;20507;-33
2023/03/20 12:21:29;;;;;;;26.60;10.18;;;10.30;99.90;;;;;;5093425;28;20091;-38
2023/03/20 12:24:16;;;;;;;24.77;10.68;;;10.20;99.90;;;;;;5093250;28;20035;-28
2023/03/20 12:26:51;;;;;;;20.65;9.77;;;10.20;99.90;;;;;;5096598;28;20472;-36
2023/03/20 12:29:22;;;;;;;25.58;9.88;;;10.10;99.90;;;;;;5093154;28;20035;-35
2023/03/20 12:32:21;;;;;;;15.07;8.90;;;10.00;99.90;;;;;;5098949;28;20024;-29
2023/03/20 12:35:01;;;;;;;22.05;8.68;;;9.90;99.90;;;;;;5093448;28;20463;-33
2023/03/20 12:37:27;;;;;;;19.35;9.30;;;9.90;99.90;;;;;;5093053;28;20500;-31
2023/03/20 12:39:58;;;;;;;26.73;10.13;;;9.80;99.90;;;;;;5093194;28;20027;-32
2023/03/20 12:42:30;;;;;;;26.95;10.10;;;9.80;99.90;;;;;;5093043;28;20543;-32
2023/03/20 12:45:10;;;;;;;29.60;10.35;;;9.80;99.90;;;;;;5092796;28;20024;-38
2023/03/20 12:48:15;;;;;;;23.25;9.68;;;9.80;99.90;;;;;;5092675;28;20063;-35
2023/03/20 12:50:56;;;;;;;32.42;9.73;;;9.80;99.90;;;;;;5093399;28;20040;-36
2023/03/20 12:54:01;;;;;;;22.70;9.35;;;9.90;99.90;;;;;;5113295;28;20031;-33
2023/03/20 12:57:01;;;;;;;20.45;10.30;;;9.80;99.90;;;;;;5107929;28;20042;-36
2023/03/20 12:59:41;;;;;;;23.48;8.90;;;9.80;99.90;;;;;;5101692;28;20027;-33
2023/03/20 13:02:22;;;;;;;21.50;9.68;;;9.80;99.90;;;;;;5100260;28;20042;-33
2023/03/20 13:05:21;;;;;;;16.88;9.88;;;9.80;99.90;;;;;;5107359;28;20032;-36
2023/03/20 13:08:14;;;;;;;24.40;9.07;;;9.80;99.90;;;;;;5112409;28;20063;-35
2023/03/20 13:11:00;;;;;;;17.48;8.80;;;9.80;99.90;;;;;;5096636;28;20033;-36